sensor_id;sensor_type;location;lat;lon;timestamp;P1;durP1;ratioP1;P2;durP2;ratioP2
22186;SDS011;11259;52.146;12.844;2023-11-19T00:01:48;2.92;;;1.95;;
22186;SDS011;11259;52.146;12.844;2023-11-19T00:04:13;1.00;;;1.00;;
22186;SDS011;11259;52.146;12.844;2023-11-19T00:06:38;1.73;;;1.63;;
22186;SDS011;11259;52.146;12.844;2023-11-19T00:09:04;1.50;;;1.40;;
22186;SDS011;11259;52.146;12.844;2023-11-19T00:11:29;3.33;;;1.85;;
22186;SDS011;11259;52.146;12.844;2023-11-19T00:13:56;0.80;;;0.80;;
22186;SDS011;11259;52.146;12.844;2023-11-19T00:16:21;1.40;;;1.20;;
22186;SDS011;11259;52.146;12.844;2023-11-19T00:18:46;2.03;;;1.92;;
22186;SDS011;11259;52.146;12.844;2023-11-19T00:21:12;2.15;;;1.92;;
22186;SDS011;11259;52.146;12.844;2023-11-19T00:23:37;1.50;;;1.10;;
22186;SDS011;11259;52.146;12.844;2023-11-19T00:26:03;1.13;;;1.13;;
22186;SDS011;11259;52.146;12.844;2023-11-19T00:28:29;5.25;;;1.67;;
22186;SDS011;11259;52.146;12.844;2023-11-19T00:30:56;1.33;;;1.23;;
22186;SDS011;11259;52.146;12.844;2023-11-19T00:33:21;2.00;;;1.88;;
22186;SDS011;11259;52.146;12.844;2023-11-19T00:35:46;2.85;;;2.20;;
22186;SDS011;11259;52.146;12.844;2023-11-19T00:38:12;1.15;;;1.13;;
22186;SDS011;11259;52.146;12.844;2023-11-19T00:40:37;1.40;;;1.30;;
22186;SDS011;11259;52.146;12.844;2023-11-19T00:43:02;1.27;;;1.17;;
22186;SDS011;11259;52.146;12.844;2023-11-19T00:45:28;0.80;;;0.80;;
22186;SDS011;11259;52.146;12.844;2023-11-19T00:47:55;1.45;;;1.33;;
22186;SDS011;11259;52.146;12.844;2023-11-19T00:50:20;1.95;;;1.23;;
22186;SDS011;11259;52.146;12.844;2023-11-19T00:52:46;0.82;;;0.80;;
22186;SDS011;11259;52.146;12.844;2023-11-19T00:55:11;4.55;;;1.23;;
22186;SDS011;11259;52.146;12.844;2023-11-19T00:57:36;2.40;;;1.90;;
22186;SDS011;11259;52.146;12.844;2023-11-19T01:00:02;0.93;;;0.88;;
22186;SDS011;11259;52.146;12.844;2023-11-19T01:02:28;1.50;;;1.17;;
22186;SDS011;11259;52.146;12.844;2023-11-19T01:04:55;1.52;;;1.42;;
22186;SDS011;11259;52.146;12.844;2023-11-19T01:07:20;1.10;;;1.10;;
22186;SDS011;11259;52.146;12.844;2023-11-19T01:09:46;1.90;;;1.50;;
22186;SDS011;11259;52.146;12.844;2023-11-19T01:12:11;1.10;;;1.00;;
22186;SDS011;11259;52.146;12.844;2023-11-19T01:14:36;2.50;;;1.48;;
22186;SDS011;11259;52.146;12.844;2023-11-19T01:17:02;3.80;;;0.80;;
22186;SDS011;11259;52.146;12.844;2023-11-19T01:19:27;1.52;;;1.42;;
22186;SDS011;11259;52.146;12.844;2023-11-19T01:21:54;0.95;;;0.95;;
22186;SDS011;11259;52.146;12.844;2023-11-19T01:24:19;2.17;;;1.27;;
22186;SDS011;11259;52.146;12.844;2023-11-19T01:26:45;0.80;;;0.80;;
22186;SDS011;11259;52.146;12.844;2023-11-19T01:29:11;1.00;;;0.98;;
22186;SDS011;11259;52.146;12.844;2023-11-19T01:31:36;1.00;;;1.00;;
22186;SDS011;11259;52.146;12.844;2023-11-19T01:34:01;0.88;;;0.88;;
22186;SDS011;11259;52.146;12.844;2023-11-19T01:36:27;1.25;;;1.25;;
22186;SDS011;11259;52.146;12.844;2023-11-19T01:38:54;1.85;;;1.25;;
22186;SDS011;11259;52.146;12.844;2023-11-19T01:41:19;1.48;;;1.17;;
22186;SDS011;11259;52.146;12.844;2023-11-19T01:43:44;1.20;;;1.10;;
22186;SDS011;11259;52.146;12.844;2023-11-19T01:46:10;3.05;;;1.67;;
22186;SDS011;11259;52.146;12.844;2023-11-19T01:48:36;0.98;;;0.98;;
22186;SDS011;11259;52.146;12.844;2023-11-19T01:51:04;2.47;;;0.93;;
22186;SDS011;11259;52.146;12.844;2023-11-19T01:53:29;1.65;;;1.55;;
22186;SDS011;11259;52.146;12.844;2023-11-19T01:55:57;0.80;;;0.80;;
22186;SDS011;11259;52.146;12.844;2023-11-19T01:58:22;1.50;;;1.40;;
22186;SDS011;11259;52.146;12.844;2023-11-19T02:00:48;1.48;;;1.25;;
22186;SDS011;11259;52.146;12.844;2023-11-19T02:03:14;1.08;;;1.02;;
22186;SDS011;11259;52.146;12.844;2023-11-19T02:05:39;0.90;;;0.90;;
22186;SDS011;11259;52.146;12.844;2023-11-19T02:08:05;1.85;;;1.25;;
22186;SDS011;11259;52.146;12.844;2023-11-19T02:10:30;2.50;;;2.03;;
22186;SDS011;11259;52.146;12.844;2023-11-19T02:12:57;1.42;;;1.33;;
22186;SDS011;11259;52.146;12.844;2023-11-19T02:15:22;0.82;;;0.82;;
22186;SDS011;11259;52.146;12.844;2023-11-19T02:17:48;1.17;;;1.08;;
22186;SDS011;11259;52.146;12.844;2023-11-19T02:20:13;2.03;;;1.30;;
22186;SDS011;11259;52.146;12.844;2023-11-19T02:22:39;0.95;;;0.95;;
22186;SDS011;11259;52.146;12.844;2023-11-19T02:25:04;1.88;;;1.75;;
22186;SDS011;11259;52.146;12.844;2023-11-19T02:27:41;0.95;;;0.90;;
22186;SDS011;11259;52.146;12.844;2023-11-19T02:30:10;1.00;;;1.00;;
22186;SDS011;11259;52.146;12.844;2023-11-19T02:32:36;1.48;;;1.00;;
22186;SDS011;11259;52.146;12.844;2023-11-19T02:35:01;1.85;;;1.63;;
22186;SDS011;11259;52.146;12.844;2023-11-19T02:37:27;1.33;;;1.10;;
22186;SDS011;11259;52.146;12.844;2023-11-19T02:39:52;0.82;;;0.82;;
22186;SDS011;11259;52.146;12.844;2023-11-19T02:42:17;1.40;;;1.30;;
22186;SDS011;11259;52.146;12.844;2023-11-19T02:44:45;1.55;;;1.15;;
22186;SDS011;11259;52.146;12.844;2023-11-19T02:47:10;1.50;;;1.40;;
22186;SDS011;11259;52.146;12.844;2023-11-19T02:49:35;1.23;;;1.13;;
22186;SDS011;11259;52.146;12.844;2023-11-19T02:52:01;1.02;;;0.88;;
22186;SDS011;11259;52.146;12.844;2023-11-19T02:54:26;0.80;;;0.80;;
22186;SDS011;11259;52.146;12.844;2023-11-19T02:56:51;0.80;;;0.80;;
22186;SDS011;11259;52.146;12.844;2023-11-19T02:59:17;0.77;;;0.77;;
22186;SDS011;11259;52.146;12.844;2023-11-19T03:01:44;1.23;;;1.13;;
22186;SDS011;11259;52.146;12.844;2023-11-19T03:04:09;1.10;;;1.10;;
22186;SDS011;11259;52.146;12.844;2023-11-19T03:06:34;0.80;;;0.80;;
22186;SDS011;11259;52.146;12.844;2023-11-19T03:09:00;1.35;;;1.30;;
22186;SDS011;11259;52.146;12.844;2023-11-19T03:11:25;4.38;;;1.13;;
22186;SDS011;11259;52.146;12.844;2023-11-19T03:13:51;0.98;;;0.95;;
22186;SDS011;11259;52.146;12.844;2023-11-19T03:16:16;1.23;;;1.13;;
22186;SDS011;11259;52.146;12.844;2023-11-19T03:18:43;1.85;;;1.20;;
22186;SDS011;11259;52.146;12.844;2023-11-19T03:21:08;1.48;;;1.38;;
22186;SDS011;11259;52.146;12.844;2023-11-19T03:23:33;1.10;;;1.10;;
22186;SDS011;11259;52.146;12.844;2023-11-19T03:25:59;0.80;;;0.80;;
22186;SDS011;11259;52.146;12.844;2023-11-19T03:28:24;1.00;;;1.00;;
22186;SDS011;11259;52.146;12.844;2023-11-19T03:30:50;0.70;;;0.70;;
22186;SDS011;11259;52.146;12.844;2023-11-19T03:33:15;0.90;;;0.90;;
22186;SDS011;11259;52.146;12.844;2023-11-19T03:35:42;0.57;;;0.57;;
22186;SDS011;11259;52.146;12.844;2023-11-19T03:38:07;1.02;;;0.93;;
22186;SDS011;11259;52.146;12.844;2023-11-19T03:40:32;1.45;;;1.15;;
22186;SDS011;11259;52.146;12.844;2023-11-19T03:42:58;0.65;;;0.65;;
22186;SDS011;11259;52.146;12.844;2023-11-19T03:45:23;0.98;;;0.98;;
22186;SDS011;11259;52.146;12.844;2023-11-19T03:47:48;1.00;;;1.00;;
22186;SDS011;11259;52.146;12.844;2023-11-19T03:50:14;0.63;;;0.63;;
22186;SDS011;11259;52.146;12.844;2023-11-19T03:52:40;1.10;;;0.82;;
22186;SDS011;11259;52.146;12.844;2023-11-19T03:55:06;1.20;;;1.10;;
22186;SDS011;11259;52.146;12.844;2023-11-19T03:57:32;1.17;;;1.10;;
22186;SDS011;11259;52.146;12.844;2023-11-19T03:59:57;0.57;;;0.57;;
22186;SDS011;11259;52.146;12.844;2023-11-19T04:02:23;0.90;;;0.90;;
22186;SDS011;11259;52.146;12.844;2023-11-19T04:04:48;1.48;;;1.23;;
22186;SDS011;11259;52.146;12.844;2023-11-19T04:07:13;1.08;;;1.00;;
22186;SDS011;11259;52.146;12.844;2023-11-19T04:09:40;0.90;;;0.90;;
22186;SDS011;11259;52.146;12.844;2023-11-19T04:12:05;0.65;;;0.65;;
22186;SDS011;11259;52.146;12.844;2023-11-19T04:14:31;0.75;;;0.75;;
22186;SDS011;11259;52.146;12.844;2023-11-19T04:16:56;0.52;;;0.52;;
22186;SDS011;11259;52.146;12.844;2023-11-19T04:19:22;1.48;;;1.00;;
22186;SDS011;11259;52.146;12.844;2023-11-19T04:21:47;1.60;;;1.50;;
22186;SDS011;11259;52.146;12.844;2023-11-19T04:24:13;0.80;;;0.80;;
22186;SDS011;11259;52.146;12.844;2023-11-19T04:26:41;1.40;;;1.30;;
22186;SDS011;11259;52.146;12.844;2023-11-19T04:29:06;1.58;;;1.48;;
22186;SDS011;11259;52.146;12.844;2023-11-19T04:31:31;2.75;;;0.98;;
22186;SDS011;11259;52.146;12.844;2023-11-19T04:33:57;0.70;;;0.70;;
22186;SDS011;11259;52.146;12.844;2023-11-19T04:36:22;1.13;;;1.08;;
22186;SDS011;11259;52.146;12.844;2023-11-19T04:38:47;1.13;;;0.80;;
22186;SDS011;11259;52.146;12.844;2023-11-19T04:41:13;0.80;;;0.80;;
22186;SDS011;11259;52.146;12.844;2023-11-19T04:43:39;0.85;;;0.85;;
22186;SDS011;11259;52.146;12.844;2023-11-19T04:46:05;0.65;;;0.65;;
22186;SDS011;11259;52.146;12.844;2023-11-19T04:48:31;0.73;;;0.60;;
22186;SDS011;11259;52.146;12.844;2023-11-19T04:50:56;0.80;;;0.80;;
22186;SDS011;11259;52.146;12.844;2023-11-19T04:53:21;0.80;;;0.80;;
22186;SDS011;11259;52.146;12.844;2023-11-19T04:55:47;0.80;;;0.80;;
22186;SDS011;11259;52.146;12.844;2023-11-19T04:58:12;0.60;;;0.60;;
22186;SDS011;11259;52.146;12.844;2023-11-19T05:00:39;0.65;;;0.65;;
22186;SDS011;11259;52.146;12.844;2023-11-19T05:03:04;0.70;;;0.70;;
22186;SDS011;11259;52.146;12.844;2023-11-19T05:05:29;0.52;;;0.52;;
22186;SDS011;11259;52.146;12.844;2023-11-19T05:07:55;0.70;;;0.70;;
22186;SDS011;11259;52.146;12.844;2023-11-19T05:10:20;0.65;;;0.65;;
22186;SDS011;11259;52.146;12.844;2023-11-19T05:12:45;0.70;;;0.68;;
22186;SDS011;11259;52.146;12.844;2023-11-19T05:15:11;0.73;;;0.73;;
22186;SDS011;11259;52.146;12.844;2023-11-19T05:17:38;0.90;;;0.90;;
22186;SDS011;11259;52.146;12.844;2023-11-19T05:20:03;0.70;;;0.70;;
22186;SDS011;11259;52.146;12.844;2023-11-19T05:22:30;0.80;;;0.80;;
22186;SDS011;11259;52.146;12.844;2023-11-19T05:24:55;0.70;;;0.70;;
22186;SDS011;11259;52.146;12.844;2023-11-19T05:27:20;0.88;;;0.88;;
22186;SDS011;11259;52.146;12.844;2023-11-19T05:29:45;0.80;;;0.80;;
22186;SDS011;11259;52.146;12.844;2023-11-19T05:32:11;0.60;;;0.60;;
22186;SDS011;11259;52.146;12.844;2023-11-19T05:34:37;0.60;;;0.60;;
22186;SDS011;11259;52.146;12.844;2023-11-19T05:37:03;0.88;;;0.82;;
22186;SDS011;11259;52.146;12.844;2023-11-19T05:39:28;0.70;;;0.70;;
22186;SDS011;11259;52.146;12.844;2023-11-19T05:41:54;0.57;;;0.57;;
22186;SDS011;11259;52.146;12.844;2023-11-19T05:44:19;1.38;;;0.77;;
22186;SDS011;11259;52.146;12.844;2023-11-19T05:46:44;1.60;;;1.35;;
22186;SDS011;11259;52.146;12.844;2023-11-19T05:49:10;1.52;;;1.17;;
22186;SDS011;11259;52.146;12.844;2023-11-19T05:51:37;0.57;;;0.57;;
22186;SDS011;11259;52.146;12.844;2023-11-19T05:54:03;0.73;;;0.73;;
22186;SDS011;11259;52.146;12.844;2023-11-19T05:56:28;0.52;;;0.52;;
22186;SDS011;11259;52.146;12.844;2023-11-19T05:58:54;0.82;;;0.82;;
22186;SDS011;11259;52.146;12.844;2023-11-19T06:01:19;0.50;;;0.50;;
22186;SDS011;11259;52.146;12.844;2023-11-19T06:03:45;0.57;;;0.57;;
22186;SDS011;11259;52.146;12.844;2023-11-19T06:06:10;0.70;;;0.70;;
22186;SDS011;11259;52.146;12.844;2023-11-19T06:08:37;0.85;;;0.82;;
22186;SDS011;11259;52.146;12.844;2023-11-19T06:11:02;0.82;;;0.82;;
22186;SDS011;11259;52.146;12.844;2023-11-19T06:13:28;0.50;;;0.50;;
22186;SDS011;11259;52.146;12.844;2023-11-19T06:15:53;0.60;;;0.60;;
22186;SDS011;11259;52.146;12.844;2023-11-19T06:18:19;1.10;;;0.70;;
22186;SDS011;11259;52.146;12.844;2023-11-19T06:20:44;0.80;;;0.73;;
22186;SDS011;11259;52.146;12.844;2023-11-19T06:23:09;0.60;;;0.60;;
22186;SDS011;11259;52.146;12.844;2023-11-19T06:25:36;0.57;;;0.57;;
22186;SDS011;11259;52.146;12.844;2023-11-19T06:28:02;0.85;;;0.85;;
22186;SDS011;11259;52.146;12.844;2023-11-19T06:30:27;0.52;;;0.52;;
22186;SDS011;11259;52.146;12.844;2023-11-19T06:32:52;0.50;;;0.50;;
22186;SDS011;11259;52.146;12.844;2023-11-19T06:35:18;0.73;;;0.73;;
22186;SDS011;11259;52.146;12.844;2023-11-19T06:37:43;1.52;;;0.70;;
22186;SDS011;11259;52.146;12.844;2023-11-19T06:40:09;0.60;;;0.60;;
22186;SDS011;11259;52.146;12.844;2023-11-19T06:42:36;0.68;;;0.60;;
22186;SDS011;11259;52.146;12.844;2023-11-19T06:45:01;0.52;;;0.52;;
22186;SDS011;11259;52.146;12.844;2023-11-19T06:47:27;0.70;;;0.70;;
22186;SDS011;11259;52.146;12.844;2023-11-19T06:49:53;0.60;;;0.60;;
22186;SDS011;11259;52.146;12.844;2023-11-19T06:52:18;0.50;;;0.50;;
22186;SDS011;11259;52.146;12.844;2023-11-19T06:54:43;0.60;;;0.60;;
22186;SDS011;11259;52.146;12.844;2023-11-19T06:57:09;0.50;;;0.50;;
22186;SDS011;11259;52.146;12.844;2023-11-19T06:59:35;0.60;;;0.60;;
22186;SDS011;11259;52.146;12.844;2023-11-19T07:02:01;1.08;;;0.80;;
22186;SDS011;11259;52.146;12.844;2023-11-19T07:04:26;0.70;;;0.70;;
22186;SDS011;11259;52.146;12.844;2023-11-19T07:06:51;0.68;;;0.68;;
22186;SDS011;11259;52.146;12.844;2023-11-19T07:09:17;0.57;;;0.57;;
22186;SDS011;11259;52.146;12.844;2023-11-19T07:11:42;0.50;;;0.50;;
22186;SDS011;11259;52.146;12.844;2023-11-19T07:14:08;0.50;;;0.50;;
22186;SDS011;11259;52.146;12.844;2023-11-19T07:16:35;0.60;;;0.60;;
22186;SDS011;11259;52.146;12.844;2023-11-19T07:19:00;0.50;;;0.50;;
22186;SDS011;11259;52.146;12.844;2023-11-19T07:21:26;0.82;;;0.82;;
22186;SDS011;11259;52.146;12.844;2023-11-19T07:23:51;3.50;;;0.75;;
22186;SDS011;11259;52.146;12.844;2023-11-19T07:26:16;0.50;;;0.50;;
22186;SDS011;11259;52.146;12.844;2023-11-19T07:28:42;0.60;;;0.60;;
22186;SDS011;11259;52.146;12.844;2023-11-19T07:31:07;0.43;;;0.43;;
22186;SDS011;11259;52.146;12.844;2023-11-19T07:33:34;0.60;;;0.60;;
22186;SDS011;11259;52.146;12.844;2023-11-19T07:35:59;0.82;;;0.82;;
22186;SDS011;11259;52.146;12.844;2023-11-19T07:38:24;0.80;;;0.80;;
22186;SDS011;11259;52.146;12.844;2023-11-19T07:40:50;0.60;;;0.60;;
22186;SDS011;11259;52.146;12.844;2023-11-19T07:43:15;0.63;;;0.63;;
22186;SDS011;11259;52.146;12.844;2023-11-19T07:45:40;0.60;;;0.60;;
22186;SDS011;11259;52.146;12.844;2023-11-19T07:48:06;0.50;;;0.50;;
22186;SDS011;11259;52.146;12.844;2023-11-19T07:50:32;0.93;;;0.90;;
22186;SDS011;11259;52.146;12.844;2023-11-19T07:52:58;0.50;;;0.50;;
22186;SDS011;11259;52.146;12.844;2023-11-19T07:55:23;1.13;;;1.02;;
22186;SDS011;11259;52.146;12.844;2023-11-19T07:57:48;0.60;;;0.60;;
22186;SDS011;11259;52.146;12.844;2023-11-19T08:00:14;0.50;;;0.50;;
22186;SDS011;11259;52.146;12.844;2023-11-19T08:02:40;1.05;;;0.93;;
22186;SDS011;11259;52.146;12.844;2023-11-19T08:05:05;0.93;;;0.88;;
22186;SDS011;11259;52.146;12.844;2023-11-19T08:07:32;1.13;;;1.13;;
22186;SDS011;11259;52.146;12.844;2023-11-19T08:09:58;0.50;;;0.50;;
22186;SDS011;11259;52.146;12.844;2023-11-19T08:12:23;0.60;;;0.60;;
22186;SDS011;11259;52.146;12.844;2023-11-19T08:14:48;0.57;;;0.57;;
22186;SDS011;11259;52.146;12.844;2023-11-19T08:17:14;0.60;;;0.60;;
22186;SDS011;11259;52.146;12.844;2023-11-19T08:19:39;0.65;;;0.65;;
22186;SDS011;11259;52.146;12.844;2023-11-19T08:22:04;1.95;;;0.90;;
22186;SDS011;11259;52.146;12.844;2023-11-19T08:24:31;0.70;;;0.70;;
22186;SDS011;11259;52.146;12.844;2023-11-19T08:26:57;0.60;;;0.60;;
22186;SDS011;11259;52.146;12.844;2023-11-19T08:29:22;0.60;;;0.60;;
22186;SDS011;11259;52.146;12.844;2023-11-19T08:31:47;0.70;;;0.70;;
22186;SDS011;11259;52.146;12.844;2023-11-19T08:34:13;0.50;;;0.50;;
22186;SDS011;11259;52.146;12.844;2023-11-19T08:36:38;0.60;;;0.60;;
22186;SDS011;11259;52.146;12.844;2023-11-19T08:39:03;0.70;;;0.70;;
22186;SDS011;11259;52.146;12.844;2023-11-19T08:41:30;0.75;;;0.75;;
22186;SDS011;11259;52.146;12.844;2023-11-19T08:43:55;0.45;;;0.45;;
22186;SDS011;11259;52.146;12.844;2023-11-19T08:46:21;0.60;;;0.60;;
22186;SDS011;11259;52.146;12.844;2023-11-19T08:48:46;0.47;;;0.47;;
22186;SDS011;11259;52.146;12.844;2023-11-19T08:51:11;0.60;;;0.60;;
22186;SDS011;11259;52.146;12.844;2023-11-19T08:53:37;0.88;;;0.88;;
22186;SDS011;11259;52.146;12.844;2023-11-19T08:56:02;0.60;;;0.60;;
22186;SDS011;11259;52.146;12.844;2023-11-19T08:58:29;1.00;;;0.75;;
22186;SDS011;11259;52.146;12.844;2023-11-19T09:00:54;0.50;;;0.50;;
22186;SDS011;11259;52.146;12.844;2023-11-19T09:03:20;0.50;;;0.50;;
22186;SDS011;11259;52.146;12.844;2023-11-19T09:05:45;0.50;;;0.50;;
22186;SDS011;11259;52.146;12.844;2023-11-19T09:08:10;0.40;;;0.40;;
22186;SDS011;11259;52.146;12.844;2023-11-19T09:10:36;0.68;;;0.68;;
22186;SDS011;11259;52.146;12.844;2023-11-19T09:13:01;1.55;;;0.95;;
22186;SDS011;11259;52.146;12.844;2023-11-19T09:15:28;0.50;;;0.50;;
22186;SDS011;11259;52.146;12.844;2023-11-19T09:17:53;0.68;;;0.68;;
22186;SDS011;11259;52.146;12.844;2023-11-19T09:20:19;0.80;;;0.80;;
22186;SDS011;11259;52.146;12.844;2023-11-19T09:22:44;0.50;;;0.50;;
22186;SDS011;11259;52.146;12.844;2023-11-19T09:25:09;0.70;;;0.70;;
22186;SDS011;11259;52.146;12.844;2023-11-19T09:27:35;0.60;;;0.60;;
22186;SDS011;11259;52.146;12.844;2023-11-19T09:30:00;0.77;;;0.77;;
22186;SDS011;11259;52.146;12.844;2023-11-19T09:32:27;1.92;;;1.73;;
22186;SDS011;11259;52.146;12.844;2023-11-19T09:34:52;0.60;;;0.60;;
22186;SDS011;11259;52.146;12.844;2023-11-19T09:37:17;0.88;;;0.88;;
22186;SDS011;11259;52.146;12.844;2023-11-19T09:39:43;6.97;;;1.08;;
22186;SDS011;11259;52.146;12.844;2023-11-19T09:42:08;0.77;;;0.70;;
22186;SDS011;11259;52.146;12.844;2023-11-19T09:44:34;1.02;;;0.98;;
22186;SDS011;11259;52.146;12.844;2023-11-19T09:46:59;1.08;;;0.93;;
22186;SDS011;11259;52.146;12.844;2023-11-19T09:49:26;1.45;;;0.80;;
22186;SDS011;11259;52.146;12.844;2023-11-19T09:51:52;5.20;;;1.15;;
22186;SDS011;11259;52.146;12.844;2023-11-19T09:54:18;1.00;;;1.00;;
22186;SDS011;11259;52.146;12.844;2023-11-19T09:56:43;0.95;;;0.80;;
22186;SDS011;11259;52.146;12.844;2023-11-19T09:59:08;0.75;;;0.75;;
22186;SDS011;11259;52.146;12.844;2023-11-19T10:01:34;0.70;;;0.70;;
22186;SDS011;11259;52.146;12.844;2023-11-19T10:04:00;0.50;;;0.50;;
22186;SDS011;11259;52.146;12.844;2023-11-19T10:06:27;0.40;;;0.40;;
22186;SDS011;11259;52.146;12.844;2023-11-19T10:08:53;0.50;;;0.50;;
22186;SDS011;11259;52.146;12.844;2023-11-19T10:11:18;0.52;;;0.52;;
22186;SDS011;11259;52.146;12.844;2023-11-19T10:13:43;0.73;;;0.73;;
22186;SDS011;11259;52.146;12.844;2023-11-19T10:16:09;0.60;;;0.60;;
22186;SDS011;11259;52.146;12.844;2023-11-19T10:18:35;2.38;;;0.80;;
22186;SDS011;11259;52.146;12.844;2023-11-19T10:21:00;0.80;;;0.80;;
22186;SDS011;11259;52.146;12.844;2023-11-19T10:23:27;0.80;;;0.80;;
22186;SDS011;11259;52.146;12.844;2023-11-19T10:25:53;0.50;;;0.50;;
22186;SDS011;11259;52.146;12.844;2023-11-19T10:28:18;6.18;;;1.25;;
22186;SDS011;11259;52.146;12.844;2023-11-19T10:30:44;0.75;;;0.75;;
22186;SDS011;11259;52.146;12.844;2023-11-19T10:33:10;0.98;;;0.90;;
22186;SDS011;11259;52.146;12.844;2023-11-19T10:35:36;0.88;;;0.88;;
22186;SDS011;11259;52.146;12.844;2023-11-19T10:38:16;1.23;;;1.13;;
22186;SDS011;11259;52.146;12.844;2023-11-19T10:40:42;2.95;;;1.10;;
22186;SDS011;11259;52.146;12.844;2023-11-19T10:43:08;0.65;;;0.65;;
22186;SDS011;11259;52.146;12.844;2023-11-19T10:45:33;1.13;;;1.02;;
22186;SDS011;11259;52.146;12.844;2023-11-19T10:47:59;1.02;;;1.00;;
22186;SDS011;11259;52.146;12.844;2023-11-19T10:50:25;0.70;;;0.70;;
22186;SDS011;11259;52.146;12.844;2023-11-19T10:52:50;1.15;;;1.13;;
22186;SDS011;11259;52.146;12.844;2023-11-19T10:55:18;0.82;;;0.80;;
22186;SDS011;11259;52.146;12.844;2023-11-19T10:57:45;0.93;;;0.93;;
22186;SDS011;11259;52.146;12.844;2023-11-19T11:00:12;1.15;;;1.05;;
22186;SDS011;11259;52.146;12.844;2023-11-19T11:02:40;0.70;;;0.70;;
22186;SDS011;11259;52.146;12.844;2023-11-19T11:05:06;0.85;;;0.85;;
22186;SDS011;11259;52.146;12.844;2023-11-19T11:07:32;0.90;;;0.90;;
22186;SDS011;11259;52.146;12.844;2023-11-19T11:09:57;0.93;;;0.93;;
22186;SDS011;11259;52.146;12.844;2023-11-19T11:12:23;1.08;;;1.02;;
22186;SDS011;11259;52.146;12.844;2023-11-19T11:14:50;1.08;;;0.90;;
22186;SDS011;11259;52.146;12.844;2023-11-19T11:17:16;4.78;;;1.00;;
22186;SDS011;11259;52.146;12.844;2023-11-19T11:19:42;2.85;;;1.02;;
22186;SDS011;11259;52.146;12.844;2023-11-19T11:22:07;0.93;;;0.90;;
22186;SDS011;11259;52.146;12.844;2023-11-19T11:24:37;2.08;;;1.35;;
22186;SDS011;11259;52.146;12.844;2023-11-19T11:30:04;6.65;;;1.23;;
22186;SDS011;11259;52.146;12.844;2023-11-19T11:32:36;2.08;;;1.38;;
22186;SDS011;11259;52.146;12.844;2023-11-19T11:35:21;1.40;;;1.30;;
22186;SDS011;11259;52.146;12.844;2023-11-19T11:37:53;1.33;;;1.23;;
22186;SDS011;11259;52.146;12.844;2023-11-19T11:40:21;2.85;;;1.85;;
22186;SDS011;11259;52.146;12.844;2023-11-19T11:42:46;2.28;;;1.55;;
22186;SDS011;11259;52.146;12.844;2023-11-19T11:45:14;3.40;;;1.20;;
22186;SDS011;11259;52.146;12.844;2023-11-19T11:50:47;8.75;;;1.63;;
22186;SDS011;11259;52.146;12.844;2023-11-19T11:53:15;1.45;;;1.38;;
22186;SDS011;11259;52.146;12.844;2023-11-19T11:55:52;6.28;;;2.47;;
22186;SDS011;11259;52.146;12.844;2023-11-19T11:58:21;2.20;;;1.58;;
22186;SDS011;11259;52.146;12.844;2023-11-19T12:00:49;1.45;;;0.85;;
22186;SDS011;11259;52.146;12.844;2023-11-19T12:03:18;2.00;;;1.13;;
22186;SDS011;11259;52.146;12.844;2023-11-19T12:05:45;2.60;;;1.25;;
22186;SDS011;11259;52.146;12.844;2023-11-19T12:08:11;4.07;;;0.98;;
22186;SDS011;11259;52.146;12.844;2023-11-19T12:10:44;2.60;;;1.60;;
22186;SDS011;11259;52.146;12.844;2023-11-19T12:13:11;14.35;;;2.45;;
22186;SDS011;11259;52.146;12.844;2023-11-19T12:15:45;2.22;;;0.90;;
22186;SDS011;11259;52.146;12.844;2023-11-19T12:18:35;2.03;;;1.17;;
22186;SDS011;11259;52.146;12.844;2023-11-19T12:21:00;3.15;;;0.90;;
22186;SDS011;11259;52.146;12.844;2023-11-19T12:23:27;1.17;;;1.17;;
22186;SDS011;11259;52.146;12.844;2023-11-19T12:25:54;2.50;;;1.70;;
22186;SDS011;11259;52.146;12.844;2023-11-19T12:28:19;1.75;;;1.25;;
22186;SDS011;11259;52.146;12.844;2023-11-19T12:30:45;3.85;;;1.38;;
22186;SDS011;11259;52.146;12.844;2023-11-19T12:33:12;3.33;;;2.08;;
22186;SDS011;11259;52.146;12.844;2023-11-19T12:35:38;1.42;;;1.30;;
22186;SDS011;11259;52.146;12.844;2023-11-19T12:38:04;6.00;;;2.42;;
22186;SDS011;11259;52.146;12.844;2023-11-19T12:40:29;1.00;;;1.00;;
22186;SDS011;11259;52.146;12.844;2023-11-19T12:42:55;2.53;;;2.13;;
22186;SDS011;11259;52.146;12.844;2023-11-19T12:45:20;3.00;;;1.55;;
22186;SDS011;11259;52.146;12.844;2023-11-19T12:47:46;7.72;;;3.00;;
22186;SDS011;11259;52.146;12.844;2023-11-19T12:50:13;1.13;;;1.02;;
22186;SDS011;11259;52.146;12.844;2023-11-19T12:52:39;3.40;;;0.90;;
22186;SDS011;11259;52.146;12.844;2023-11-19T12:55:05;3.00;;;1.30;;
22186;SDS011;11259;52.146;12.844;2023-11-19T12:57:48;1.85;;;1.13;;
22186;SDS011;11259;52.146;12.844;2023-11-19T13:00:18;3.03;;;1.33;;
22186;SDS011;11259;52.146;12.844;2023-11-19T13:02:44;4.97;;;1.33;;
22186;SDS011;11259;52.146;12.844;2023-11-19T13:05:27;7.18;;;1.40;;
22186;SDS011;11259;52.146;12.844;2023-11-19T13:08:00;2.17;;;0.88;;
22186;SDS011;11259;52.146;12.844;2023-11-19T13:10:26;7.50;;;1.38;;
22186;SDS011;11259;52.146;12.844;2023-11-19T13:13:02;1.83;;;1.67;;
22186;SDS011;11259;52.146;12.844;2023-11-19T13:15:28;1.27;;;1.17;;
22186;SDS011;11259;52.146;12.844;2023-11-19T13:17:53;0.70;;;0.70;;
22186;SDS011;11259;52.146;12.844;2023-11-19T13:20:19;2.15;;;1.02;;
22186;SDS011;11259;52.146;12.844;2023-11-19T13:22:54;2.88;;;1.02;;
22186;SDS011;11259;52.146;12.844;2023-11-19T13:25:20;1.10;;;1.10;;
22186;SDS011;11259;52.146;12.844;2023-11-19T13:27:46;0.90;;;0.90;;
22186;SDS011;11259;52.146;12.844;2023-11-19T13:30:11;1.73;;;1.63;;
22186;SDS011;11259;52.146;12.844;2023-11-19T13:32:37;1.00;;;1.00;;
22186;SDS011;11259;52.146;12.844;2023-11-19T13:35:03;1.85;;;0.80;;
22186;SDS011;11259;52.146;12.844;2023-11-19T13:37:29;1.52;;;1.42;;
22186;SDS011;11259;52.146;12.844;2023-11-19T13:39:55;1.02;;;1.02;;
22186;SDS011;11259;52.146;12.844;2023-11-19T13:42:21;2.05;;;0.95;;
22186;SDS011;11259;52.146;12.844;2023-11-19T13:44:46;1.48;;;1.38;;
22186;SDS011;11259;52.146;12.844;2023-11-19T13:47:12;3.78;;;2.67;;
22186;SDS011;11259;52.146;12.844;2023-11-19T13:49:37;2.17;;;1.65;;
22186;SDS011;11259;52.146;12.844;2023-11-19T13:52:02;7.00;;;2.42;;
22186;SDS011;11259;52.146;12.844;2023-11-19T13:54:28;2.00;;;1.90;;
22186;SDS011;11259;52.146;12.844;2023-11-19T13:56:56;4.35;;;1.50;;
22186;SDS011;11259;52.146;12.844;2023-11-19T13:59:21;4.13;;;2.25;;
22186;SDS011;11259;52.146;12.844;2023-11-19T14:01:46;2.08;;;1.05;;
22186;SDS011;11259;52.146;12.844;2023-11-19T14:04:12;2.10;;;1.50;;
22186;SDS011;11259;52.146;12.844;2023-11-19T14:06:37;12.00;;;2.35;;
22186;SDS011;11259;52.146;12.844;2023-11-19T14:09:02;1.25;;;1.15;;
22186;SDS011;11259;52.146;12.844;2023-11-19T14:11:28;1.10;;;1.10;;
22186;SDS011;11259;52.146;12.844;2023-11-19T14:13:54;1.55;;;1.45;;
22186;SDS011;11259;52.146;12.844;2023-11-19T14:16:20;1.15;;;1.10;;
22186;SDS011;11259;52.146;12.844;2023-11-19T14:18:45;3.58;;;2.22;;
22186;SDS011;11259;52.146;12.844;2023-11-19T14:21:10;4.32;;;2.28;;
22186;SDS011;11259;52.146;12.844;2023-11-19T14:23:36;5.95;;;2.78;;
22186;SDS011;11259;52.146;12.844;2023-11-19T14:26:02;4.13;;;3.72;;
22186;SDS011;11259;52.146;12.844;2023-11-19T14:28:28;10.43;;;2.63;;
22186;SDS011;11259;52.146;12.844;2023-11-19T14:30:55;4.03;;;3.08;;
22186;SDS011;11259;52.146;12.844;2023-11-19T14:33:20;3.25;;;2.10;;